Time;durP1;ratioP1;P1;durP2;ratioP2;P2;SDS_P1;SDS_P2;PMS_P1;PMS_P2;Temp;Humidity;BMP_temperature;BMP_pressure;BME280_temperature;BME280_humidity;BME280_pressure;Samples;Min_cycle;Max_cycle;Signal;HPM_P1;HPM_P2
2023/05/02 00:01:11;;;;;;;3.75;3.38;;;;;;;;;;4356584;28;10000512;-75
2023/05/02 00:03:37;;;;;;;3.78;3.47;;;;;;;;;;5052240;28;20539;-74
2023/05/02 00:06:03;;;;;;;5.90;3.80;;;;;;;;;;5069143;28;20031;-74
2023/05/02 00:08:29;;;;;;;3.63;3.33;;;;;;;;;;5066984;28;20020;-74
2023/05/02 00:10:55;;;;;;;4.00;3.60;;;;;;;;;;5058073;28;20397;-74
2023/05/02 00:13:21;;;;;;;4.63;3.83;;;;;;;;;;5049943;28;20170;-74
2023/05/02 00:15:47;;;;;;;4.40;3.50;;;;;;;;;;5051155;28;20029;-74
2023/05/02 00:18:13;;;;;;;4.10;3.70;;;;;;;;;;5062537;28;20056;-74
2023/05/02 00:20:40;;;;;;;4.85;3.80;;;;;;;;;;5069757;28;20036;-75
2023/05/02 00:23:06;;;;;;;4.18;3.85;;;;;;;;;;5069617;28;20021;-74
2023/05/02 00:25:32;;;;;;;3.75;3.25;;;;;;;;;;5069859;28;20060;-75
2023/05/02 00:27:58;;;;;;;4.28;3.88;;;;;;;;;;5067022;28;20389;-74
2023/05/02 00:30:24;;;;;;;4.57;3.72;;;;;;;;;;5051952;28;20021;-75
2023/05/02 00:32:52;;;;;;;3.53;3.22;;;;;;;;;;5068990;28;20024;-75
2023/05/02 00:35:18;;;;;;;4.15;3.60;;;;;;;;;;5066386;28;20094;-75
2023/05/02 00:37:45;;;;;;;5.88;4.70;;;;;;;;;;5061016;28;20485;-75
2023/05/02 00:40:11;;;;;;;4.30;3.90;;;;;;;;;;5049556;28;20108;-75
2023/05/02 00:42:37;;;;;;;4.88;4.15;;;;;;;;;;5055591;28;20703;-74
2023/05/02 00:45:05;;;;;;;4.28;3.88;;;;;;;;;;5065060;28;20028;-75
2023/05/02 00:47:31;;;;;;;5.40;3.90;;;;;;;;;;5051798;28;20028;-75
2023/05/02 00:49:57;;;;;;;4.05;3.75;;;;;;;;;;5063473;28;20024;-74
2023/05/02 00:52:24;;;;;;;6.45;4.50;;;;;;;;;;5049377;28;20028;-75
2023/05/02 00:54:50;;;;;;;5.30;4.80;;;;;;;;;;5067291;28;20048;-74
2023/05/02 00:57:16;;;;;;;5.88;4.40;;;;;;;;;;5067719;28;20052;-74
2023/05/02 00:59:42;;;;;;;5.70;4.88;;;;;;;;;;5069501;28;20481;-75
2023/05/02 01:02:27;;;;;;;4.43;4.03;;;;;;;;;;5062491;28;20027;-75
2023/05/02 01:05:00;;;;;;;5.22;4.20;;;;;;;;;;5049817;28;20496;-74
2023/05/02 01:07:44;;;;;;;4.32;3.80;;;;;;;;;;5057248;28;20052;-74
2023/05/02 01:10:21;;;;;;;4.45;4.05;;;;;;;;;;5069139;28;20040;-74
2023/05/02 01:12:52;;;;;;;3.50;3.20;;;;;;;;;;5050126;28;20481;-74
2023/05/02 01:15:20;;;;;;;7.15;5.43;;;;;;;;;;5049159;28;20056;-74
2023/05/02 01:17:47;;;;;;;6.40;5.60;;;;;;;;;;5048983;28;20032;-74
2023/05/02 01:20:15;;;;;;;7.70;5.90;;;;;;;;;;5062882;28;20112;-75
2023/05/02 01:22:41;;;;;;;6.75;4.95;;;;;;;;;;5066074;28;20072;-74
2023/05/02 01:25:16;;;;;;;8.18;6.07;;;;;;;;;;5059970;28;20045;-74
2023/05/02 01:27:42;;;;;;;8.32;5.80;;;;;;;;;;5048884;28;20037;-74
2023/05/02 01:30:09;;;;;;;6.35;5.40;;;;;;;;;;5049255;28;20507;-74
2023/05/02 01:32:36;;;;;;;6.68;5.13;;;;;;;;;;5065658;28;20040;-74
2023/05/02 01:35:04;;;;;;;6.20;4.82;;;;;;;;;;5048691;28;20040;-74
2023/05/02 01:37:30;;;;;;;5.45;4.95;;;;;;;;;;5064816;28;20108;-74
2023/05/02 01:39:57;;;;;;;5.70;5.10;;;;;;;;;;5056955;28;20025;-74
2023/05/02 01:42:23;;;;;;;7.93;6.45;;;;;;;;;;5049027;28;20546;-74
2023/05/02 01:44:51;;;;;;;6.22;5.53;;;;;;;;;;5048011;28;20389;-75
2023/05/02 01:47:18;;;;;;;7.57;6.05;;;;;;;;;;5048468;28;20013;-72
2023/05/02 01:49:45;;;;;;;7.45;6.40;;;;;;;;;;5066366;28;20100;-75
2023/05/02 01:52:12;;;;;;;7.20;6.35;;;;;;;;;;5067216;28;20089;-73
2023/05/02 01:54:39;;;;;;;8.02;6.72;;;;;;;;;;5062548;28;20028;-75
2023/05/02 01:57:06;;;;;;;7.22;6.53;;;;;;;;;;5048595;28;20029;-73
2023/05/02 01:59:33;;;;;;;7.90;6.30;;;;;;;;;;5047723;28;20044;-74
2023/05/02 02:02:01;;;;;;;9.20;6.68;;;;;;;;;;5050553;28;20035;-73
2023/05/02 02:04:28;;;;;;;7.20;6.15;;;;;;;;;;5048233;28;20033;-73
2023/05/02 02:07:01;;;;;;;7.13;6.13;;;;;;;;;;5047704;28;20032;-74
2023/05/02 02:09:27;;;;;;;12.43;7.18;;;;;;;;;;5056855;28;20083;-73
2023/05/02 02:12:05;;;;;;;6.53;5.90;;;;;;;;;;5050847;28;20032;-75
2023/05/02 02:14:36;;;;;;;8.07;6.68;;;;;;;;;;5049645;28;20029;-74
2023/05/02 02:17:05;;;;;;;7.43;6.65;;;;;;;;;;5047706;28;20033;-74
2023/05/02 02:19:32;;;;;;;7.05;5.88;;;;;;;;;;5059748;28;20041;-73
2023/05/02 02:21:58;;;;;;;8.35;6.55;;;;;;;;;;5068262;28;20400;-74
2023/05/02 02:24:25;;;;;;;8.10;6.60;;;;;;;;;;5065689;28;20117;-74
2023/05/02 02:26:51;;;;;;;8.05;6.60;;;;;;;;;;5058272;28;20078;-74
2023/05/02 02:29:17;;;;;;;6.93;6.22;;;;;;;;;;5067033;28;20048;-73
2023/05/02 02:31:43;;;;;;;8.60;7.28;;;;;;;;;;5049622;28;20072;-73
2023/05/02 02:34:10;;;;;;;11.48;8.73;;;;;;;;;;5048026;28;20021;-73
2023/05/02 02:36:40;;;;;;;10.43;8.50;;;;;;;;;;5051749;28;20541;-74
2023/05/02 02:39:21;;;;;;;14.50;9.15;;;;;;;;;;5059766;28;20263;-72
2023/05/02 02:42:01;;;;;;;15.82;12.23;;;;;;;;;;5064427;28;20021;-74
2023/05/02 02:44:53;;;;;;;13.43;11.35;;;;;;;;;;5048313;28;20040;-73
2023/05/02 02:47:27;;;;;;;14.50;11.65;;;;;;;;;;5047113;28;20080;-73
2023/05/02 02:50:09;;;;;;;14.23;11.32;;;;;;;;;;5047884;28;20017;-73
2023/05/02 02:52:47;;;;;;;13.93;11.35;;;;;;;;;;5055782;28;20112;-74
2023/05/02 02:55:19;;;;;;;14.27;11.57;;;;;;;;;;5053897;28;20051;-74
2023/05/02 02:57:55;;;;;;;15.27;12.47;;;;;;;;;;5049173;28;20053;-74
2023/05/02 03:00:24;;;;;;;18.83;13.40;;;;;;;;;;5052126;28;20151;-74
2023/05/02 03:02:52;;;;;;;15.93;12.52;;;;;;;;;;5050226;28;20033;-74
2023/05/02 03:05:19;;;;;;;19.23;14.13;;;;;;;;;;5048479;28;20435;-73
2023/05/02 03:07:45;;;;;;;18.45;14.02;;;;;;;;;;5051907;28;20033;-74
2023/05/02 03:10:11;;;;;;;16.73;13.85;;;;;;;;;;5051473;28;20025;-74
2023/05/02 03:12:38;;;;;;;17.13;13.68;;;;;;;;;;5063900;28;20040;-74
2023/05/02 03:15:12;;;;;;;20.40;14.38;;;;;;;;;;5061447;28;20021;-74
2023/05/02 03:17:38;;;;;;;20.40;15.68;;;;;;;;;;5070212;28;20029;-74
2023/05/02 03:20:04;;;;;;;18.27;14.88;;;;;;;;;;5069287;28;20097;-74
2023/05/02 03:22:30;;;;;;;21.00;15.63;;;;;;;;;;5054875;28;20546;-74
2023/05/02 03:24:56;;;;;;;21.08;15.82;;;;;;;;;;5061560;28;20037;-74
2023/05/02 03:27:22;;;;;;;21.65;15.35;;;;;;;;;;5051134;28;23141;-73
2023/05/02 03:29:48;;;;;;;22.13;16.00;;;;;;;;;;5060115;28;20033;-74
2023/05/02 03:32:14;;;;;;;19.38;14.93;;;;;;;;;;5062474;28;20026;-74
2023/05/02 03:34:40;;;;;;;21.15;16.10;;;;;;;;;;5069377;28;20063;-74
2023/05/02 03:37:06;;;;;;;23.88;16.17;;;;;;;;;;5058847;28;20048;-74
2023/05/02 03:39:32;;;;;;;21.67;16.42;;;;;;;;;;5058797;28;20500;-73
2023/05/02 03:41:58;;;;;;;23.15;17.70;;;;;;;;;;5067582;28;20028;-74
2023/05/02 03:44:24;;;;;;;25.70;18.35;;;;;;;;;;5052789;28;20064;-73
2023/05/02 03:46:50;;;;;;;24.02;17.73;;;;;;;;;;5051316;28;20032;-74
2023/05/02 03:49:18;;;;;;;22.63;18.10;;;;;;;;;;5066989;28;20032;-73
2023/05/02 03:51:44;;;;;;;27.30;18.52;;;;;;;;;;5068023;28;20033;-73
2023/05/02 03:54:10;;;;;;;26.05;19.33;;;;;;;;;;5068286;28;20027;-74
2023/05/02 03:56:38;;;;;;;25.30;19.52;;;;;;;;;;5053210;28;20029;-73
2023/05/02 03:59:04;;;;;;;27.77;20.05;;;;;;;;;;5062837;28;20037;-73
2023/05/02 04:01:30;;;;;;;27.73;20.80;;;;;;;;;;5047437;28;20276;-74
2023/05/02 04:03:56;;;;;;;26.85;20.45;;;;;;;;;;5057085;28;20033;-73
2023/05/02 04:06:22;;;;;;;29.73;21.05;;;;;;;;;;5062477;28;20476;-74
2023/05/02 04:08:48;;;;;;;27.40;20.95;;;;;;;;;;5063477;28;20086;-74
2023/05/02 04:11:15;;;;;;;26.35;20.25;;;;;;;;;;5050180;28;20025;-73
2023/05/02 04:13:41;;;;;;;27.50;19.70;;;;;;;;;;5062277;28;20033;-73
2023/05/02 04:16:07;;;;;;;29.83;21.95;;;;;;;;;;5056369;28;20031;-73
2023/05/02 04:18:33;;;;;;;32.70;24.50;;;;;;;;;;5055877;28;20028;-74
2023/05/02 04:20:59;;;;;;;31.85;24.33;;;;;;;;;;5068673;28;20116;-73
2023/05/02 04:23:25;;;;;;;34.17;24.60;;;;;;;;;;5070098;28;20051;-74
2023/05/02 04:25:55;;;;;;;30.77;23.25;;;;;;;;;;5063390;28;20543;-73
2023/05/02 04:28:21;;;;;;;32.78;24.92;;;;;;;;;;5070092;28;20033;-74
2023/05/02 04:30:48;;;;;;;36.83;27.13;;;;;;;;;;5059536;28;20495;-73
2023/05/02 04:33:14;;;;;;;36.00;26.65;;;;;;;;;;5053253;28;20116;-74
2023/05/02 04:35:40;;;;;;;34.33;25.15;;;;;;;;;;5050556;28;20059;-74
2023/05/02 04:38:07;;;;;;;42.35;28.52;;;;;;;;;;5056192;28;20036;-74
2023/05/02 04:40:34;;;;;;;35.92;26.88;;;;;;;;;;5066495;28;20056;-73
2023/05/02 04:43:00;;;;;;;37.35;27.25;;;;;;;;;;5056801;28;20028;-73
2023/05/02 04:45:26;;;;;;;40.55;29.63;;;;;;;;;;5055909;28;20189;-73
2023/05/02 04:47:52;;;;;;;40.20;29.50;;;;;;;;;;5051367;28;20399;-74
2023/05/02 04:50:18;;;;;;;45.83;30.98;;;;;;;;;;5062024;28;20127;-73
2023/05/02 04:52:44;;;;;;;42.75;31.48;;;;;;;;;;5062282;28;20024;-73
2023/05/02 04:55:10;;;;;;;45.88;32.08;;;;;;;;;;5051276;28;20488;-73
2023/05/02 04:57:38;;;;;;;46.72;31.98;;;;;;;;;;5051782;28;20033;-72
2023/05/02 05:00:04;;;;;;;41.67;29.38;;;;;;;;;;5053421;28;20491;-73
2023/05/02 05:02:31;;;;;;;38.95;29.83;;;;;;;;;;5058226;28;20115;-73
2023/05/02 05:04:57;;;;;;;44.50;31.75;;;;;;;;;;5055406;28;20025;-72
2023/05/02 05:07:24;;;;;;;44.75;31.65;;;;;;;;;;5056051;28;20404;-73
2023/05/02 05:09:50;;;;;;;45.35;31.40;;;;;;;;;;5050905;28;20029;-73
2023/05/02 05:12:16;;;;;;;41.35;30.17;;;;;;;;;;5055259;28;20097;-73
2023/05/02 05:14:43;;;;;;;46.85;33.25;;;;;;;;;;5063569;28;20024;-73
2023/05/02 05:17:09;;;;;;;42.33;31.20;;;;;;;;;;5054351;28;20032;-72
2023/05/02 05:19:35;;;;;;;41.92;30.92;;;;;;;;;;5059872;28;20077;-72
2023/05/02 05:22:01;;;;;;;43.20;31.42;;;;;;;;;;5064965;28;20387;-73
2023/05/02 05:24:27;;;;;;;42.80;32.03;;;;;;;;;;5056396;28;20439;-73
2023/05/02 05:26:53;;;;;;;42.28;30.88;;;;;;;;;;5047529;28;20040;-72
2023/05/02 05:29:19;;;;;;;48.03;33.28;;;;;;;;;;5049106;28;20413;-72
2023/05/02 05:31:45;;;;;;;39.63;29.83;;;;;;;;;;5050259;28;20024;-73
2023/05/02 05:34:11;;;;;;;46.10;30.45;;;;;;;;;;5057375;28;20119;-73
2023/05/02 05:36:39;;;;;;;47.50;33.33;;;;;;;;;;5050702;28;20029;-73
2023/05/02 05:39:05;;;;;;;46.78;32.72;;;;;;;;;;5047986;28;20032;-73
2023/05/02 05:41:32;;;;;;;41.88;30.30;;;;;;;;;;5051199;28;20032;-73
2023/05/02 05:43:58;;;;;;;44.45;31.15;;;;;;;;;;5047684;28;20488;-73
2023/05/02 05:46:24;;;;;;;41.75;28.63;;;;;;;;;;5054930;28;20677;-74
2023/05/02 05:48:50;;;;;;;41.05;29.27;;;;;;;;;;5067964;28;20028;-74
2023/05/02 05:51:16;;;;;;;41.72;28.95;;;;;;;;;;5055387;28;20502;-73
2023/05/02 05:53:42;;;;;;;40.92;28.10;;;;;;;;;;5064310;28;20032;-73
2023/05/02 05:56:11;;;;;;;37.13;26.35;;;;;;;;;;5053319;28;20132;-73
2023/05/02 05:58:37;;;;;;;37.58;26.98;;;;;;;;;;5057401;28;20158;-74
2023/05/02 06:01:04;;;;;;;36.42;25.13;;;;;;;;;;5048709;28;20562;-73
2023/05/02 06:03:30;;;;;;;40.42;27.00;;;;;;;;;;5047553;28;20039;-73
2023/05/02 06:05:56;;;;;;;36.40;25.20;;;;;;;;;;5047200;28;20025;-73
2023/05/02 06:08:22;;;;;;;37.00;25.10;;;;;;;;;;5053386;28;20024;-73
2023/05/02 06:10:48;;;;;;;33.75;22.92;;;;;;;;;;5062558;28;20089;-73
2023/05/02 06:13:14;;;;;;;34.55;23.60;;;;;;;;;;5053074;28;20079;-73
2023/05/02 06:15:40;;;;;;;36.35;23.45;;;;;;;;;;5053222;28;20036;-73
2023/05/02 06:18:06;;;;;;;36.45;24.17;;;;;;;;;;5046577;28;20025;-73
2023/05/02 06:20:32;;;;;;;35.53;23.05;;;;;;;;;;5048758;28;20122;-73
2023/05/02 06:22:58;;;;;;;33.28;22.45;;;;;;;;;;5057405;28;20032;-73
2023/05/02 06:25:25;;;;;;;36.95;23.60;;;;;;;;;;5047871;28;20127;-73
2023/05/02 06:27:51;;;;;;;28.55;20.70;;;;;;;;;;5047358;28;20033;-73
2023/05/02 06:30:17;;;;;;;30.65;20.45;;;;;;;;;;5046482;28;20091;-73
2023/05/02 06:32:43;;;;;;;28.85;19.50;;;;;;;;;;5053742;28;20136;-72
2023/05/02 06:35:10;;;;;;;31.95;19.65;;;;;;;;;;5056429;28;20107;-73
2023/05/02 06:37:36;;;;;;;29.83;19.48;;;;;;;;;;5048108;28;20033;-73
2023/05/02 06:40:02;;;;;;;24.02;16.75;;;;;;;;;;5049803;28;20439;-73
2023/05/02 06:42:28;;;;;;;22.83;15.73;;;;;;;;;;5054003;28;20036;-73
2023/05/02 06:44:55;;;;;;;21.42;14.27;;;;;;;;;;5059543;28;20383;-72
2023/05/02 06:47:23;;;;;;;18.65;11.85;;;;;;;;;;5064291;28;20032;-72
2023/05/02 06:49:49;;;;;;;15.23;10.95;;;;;;;;;;5061858;28;20408;-73
2023/05/02 06:52:15;;;;;;;21.45;12.63;;;;;;;;;;5059070;28;20347;-73
2023/05/02 06:54:41;;;;;;;18.83;11.50;;;;;;;;;;5061525;28;20028;-73
2023/05/02 06:57:07;;;;;;;18.52;11.55;;;;;;;;;;5050639;28;20025;-73
2023/05/02 06:59:33;;;;;;;18.65;11.65;;;;;;;;;;5054257;28;20681;-73
2023/05/02 07:01:59;;;;;;;20.55;12.38;;;;;;;;;;5050549;28;20032;-74
2023/05/02 07:04:25;;;;;;;21.65;11.82;;;;;;;;;;5050154;28;20397;-73
2023/05/02 07:06:51;;;;;;;19.58;11.65;;;;;;;;;;5057055;28;20756;-73
2023/05/02 07:09:18;;;;;;;19.50;11.68;;;;;;;;;;5050048;28;20029;-73
2023/05/02 07:11:43;;;;;;;17.10;10.27;;;;;;;;;;5056108;28;20043;-73
2023/05/02 07:14:09;;;;;;;15.23;9.15;;;;;;;;;;5053502;28;20497;-73
2023/05/02 07:16:35;;;;;;;15.75;9.60;;;;;;;;;;5066034;28;20064;-74
2023/05/02 07:19:03;;;;;;;13.43;8.65;;;;;;;;;;5053092;28;20028;-72
2023/05/02 07:21:29;;;;;;;13.25;8.85;;;;;;;;;;5063178;28;20060;-72
2023/05/02 07:23:56;;;;;;;12.93;8.13;;;;;;;;;;5070605;28;20268;-73
2023/05/02 07:26:23;;;;;;;15.85;8.75;;;;;;;;;;5062714;28;20492;-73
2023/05/02 07:28:49;;;;;;;12.90;7.45;;;;;;;;;;5055270;28;20404;-73
2023/05/02 07:31:15;;;;;;;13.43;8.52;;;;;;;;;;5054761;28;20013;-73
2023/05/02 07:33:41;;;;;;;10.40;7.65;;;;;;;;;;5052457;28;20107;-73
2023/05/02 07:36:07;;;;;;;11.65;7.53;;;;;;;;;;5051517;28;20547;-73
2023/05/02 07:38:33;;;;;;;11.77;7.68;;;;;;;;;;5056696;28;20037;-73
2023/05/02 07:40:59;;;;;;;9.82;6.55;;;;;;;;;;5049872;28;20075;-73
2023/05/02 07:43:26;;;;;;;9.85;6.60;;;;;;;;;;5062699;28;20020;-73
2023/05/02 07:45:52;;;;;;;8.50;6.20;;;;;;;;;;5060021;28;20063;-73
2023/05/02 07:48:19;;;;;;;12.23;6.93;;;;;;;;;;5068378;28;20064;-73
2023/05/02 07:50:45;;;;;;;9.75;6.35;;;;;;;;;;5060793;28;20025;-73
2023/05/02 07:53:11;;;;;;;10.70;6.43;;;;;;;;;;5048759;28;20036;-73
2023/05/02 07:55:37;;;;;;;10.02;6.30;;;;;;;;;;5049580;28;20025;-72
2023/05/02 07:58:03;;;;;;;7.85;5.97;;;;;;;;;;5050141;28;20040;-73
2023/05/02 08:00:29;;;;;;;7.18;5.70;;;;;;;;;;5051602;28;20413;-72
2023/05/02 08:02:55;;;;;;;8.18;5.38;;;;;;;;;;5050160;28;20087;-72
2023/05/02 08:05:21;;;;;;;8.13;5.70;;;;;;;;;;5064083;28;20468;-73
2023/05/02 08:07:47;;;;;;;8.38;5.95;;;;;;;;;;5065191;28;20036;-73
2023/05/02 08:10:13;;;;;;;8.43;6.28;;;;;;;;;;5062377;28;20021;-73
2023/05/02 08:12:40;;;;;;;8.65;6.20;;;;;;;;;;5049639;28;20025;-73
2023/05/02 08:15:07;;;;;;;9.35;6.43;;;;;;;;;;5048815;28;20017;-73
2023/05/02 08:17:33;;;;;;;8.00;5.03;;;;;;;;;;5063467;28;20048;-73
2023/05/02 08:20:00;;;;;;;10.40;6.25;;;;;;;;;;5068365;28;20527;-73
2023/05/02 08:22:26;;;;;;;8.57;6.18;;;;;;;;;;5059581;28;20025;-74
2023/05/02 08:24:52;;;;;;;9.68;6.40;;;;;;;;;;5060824;28;20051;-73
2023/05/02 08:27:18;;;;;;;8.32;6.20;;;;;;;;;;5051091;28;20040;-74
2023/05/02 08:29:44;;;;;;;12.52;7.00;;;;;;;;;;5049532;28;20021;-73
2023/05/02 08:32:10;;;;;;;9.57;6.50;;;;;;;;;;5062608;28;20480;-74
2023/05/02 08:34:36;;;;;;;8.35;6.32;;;;;;;;;;5049861;28;20044;-73
2023/05/02 08:37:07;;;;;;;8.75;6.82;;;;;;;;;;5058105;28;20545;-73
2023/05/02 08:39:33;;;;;;;9.27;6.47;;;;;;;;;;5067485;28;20486;-73
2023/05/02 08:41:59;;;;;;;8.88;6.50;;;;;;;;;;5067042;28;20027;-73
2023/05/02 08:44:25;;;;;;;8.63;6.55;;;;;;;;;;5061237;28;20036;-73
2023/05/02 08:46:51;;;;;;;9.63;6.60;;;;;;;;;;5051949;28;20041;-73
2023/05/02 08:49:18;;;;;;;5.45;3.88;;;;;;;;;;5064556;28;20366;-73
2023/05/02 08:51:45;;;;;;;2.65;2.00;;;;;;;;;;5047984;28;20062;-73
2023/05/02 08:54:16;;;;;;;5.28;1.80;;;;;;;;;;5048103;28;20059;-73
2023/05/02 08:56:42;;;;;;;2.70;2.05;;;;;;;;;;5059256;28;20363;-73
2023/05/02 08:59:08;;;;;;;2.53;2.10;;;;;;;;;;5055271;28;20548;-73
2023/05/02 09:01:35;;;;;;;2.22;1.90;;;;;;;;;;5051306;28;20592;-73
2023/05/02 09:04:01;;;;;;;2.83;2.10;;;;;;;;;;5056940;28;20028;-73
2023/05/02 09:06:28;;;;;;;2.75;2.08;;;;;;;;;;5059077;28;20533;-73
2023/05/02 09:08:54;;;;;;;2.78;1.95;;;;;;;;;;5048013;28;20144;-73
2023/05/02 09:11:21;;;;;;;3.72;2.53;;;;;;;;;;5053421;28;20024;-73
2023/05/02 09:13:48;;;;;;;3.50;2.70;;;;;;;;;;5066519;28;20036;-73
2023/05/02 09:16:16;;;;;;;6.85;3.15;;;;;;;;;;5062999;28;20025;-73
2023/05/02 09:18:44;;;;;;;4.15;3.03;;;;;;;;;;5060061;28;20036;-73
2023/05/02 09:21:11;;;;;;;3.47;2.60;;;;;;;;;;5047627;28;20036;-72
2023/05/02 09:23:37;;;;;;;3.97;2.75;;;;;;;;;;5047747;28;20035;-73
2023/05/02 09:26:15;;;;;;;3.30;2.75;;;;;;;;;;5042891;28;20171;-73
2023/05/02 09:28:51;;;;;;;5.00;3.05;;;;;;;;;;4697594;28;10000553;-73
2023/05/02 09:31:21;;;;;;;5.10;3.40;;;;;;;;;;5051075;28;20090;-73
2023/05/02 09:33:47;;;;;;;4.57;3.40;;;;;;;;;;5050997;28;20086;-72
2023/05/02 09:36:14;;;;;;;5.03;3.30;;;;;;;;;;5053167;28;20021;-73
2023/05/02 09:38:44;;;;;;;6.55;3.42;;;;;;;;;;5054187;28;20055;-73
2023/05/02 09:41:10;;;;;;;5.38;3.70;;;;;;;;;;5048508;28;20036;-74
2023/05/02 09:43:37;;;;;;;4.18;2.88;;;;;;;;;;5049482;28;20029;-73
2023/05/02 09:46:04;;;;;;;4.85;3.00;;;;;;;;;;5045345;28;20043;-72
2023/05/02 09:48:31;;;;;;;2.63;2.38;;;;;;;;;;5046336;28;20033;-72
2023/05/02 09:50:57;;;;;;;3.65;2.58;;;;;;;;;;5052473;28;20068;-73
2023/05/02 09:53:26;;;;;;;3.67;2.13;;;;;;;;;;5056575;28;20028;-74
2023/05/02 09:56:02;;;;;;;5.88;1.98;;;;;;;;;;5049350;28;20035;-73
2023/05/02 09:58:29;;;;;;;2.45;2.10;;;;;;;;;;5049738;28;20085;-74
2023/05/02 10:00:56;;;;;;;2.92;2.00;;;;;;;;;;5041684;28;20148;-74
2023/05/02 10:03:22;;;;;;;3.15;2.13;;;;;;;;;;5048739;28;20037;-74
2023/05/02 10:05:49;;;;;;;2.50;2.10;;;;;;;;;;5057853;28;20086;-74
2023/05/02 10:08:16;;;;;;;2.17;1.73;;;;;;;;;;5048004;28;20021;-75
2023/05/02 10:10:45;;;;;;;2.30;1.80;;;;;;;;;;5055675;28;20379;-74
2023/05/02 10:13:11;;;;;;;2.05;1.83;;;;;;;;;;5051818;28;20139;-73
2023/05/02 10:15:42;;;;;;;3.10;1.60;;;;;;;;;;5046390;28;20040;-75
2023/05/02 10:18:17;;;;;;;2.97;1.80;;;;;;;;;;5054468;28;20218;-74
2023/05/02 10:20:48;;;;;;;1.60;1.50;;;;;;;;;;5048692;28;20029;-74
2023/05/02 10:23:15;;;;;;;1.52;1.40;;;;;;;;;;5049601;28;20114;-74
2023/05/02 10:25:41;;;;;;;3.08;1.48;;;;;;;;;;5045304;28;20309;-73
2023/05/02 10:28:10;;;;;;;1.55;1.45;;;;;;;;;;5051310;28;20548;-73
2023/05/02 10:30:36;;;;;;;2.83;1.35;;;;;;;;;;5042550;28;20035;-73
2023/05/02 10:33:02;;;;;;;3.03;1.70;;;;;;;;;;5047953;28;20489;-73
2023/05/02 10:35:29;;;;;;;1.85;1.50;;;;;;;;;;5046009;28;20185;-73
2023/05/02 10:37:56;;;;;;;1.85;1.65;;;;;;;;;;5050813;28;20029;-74
2023/05/02 10:40:22;;;;;;;2.45;1.63;;;;;;;;;;5044276;28;20036;-73
2023/05/02 10:42:51;;;;;;;3.25;1.98;;;;;;;;;;5054522;28;20024;-73
2023/05/02 10:45:36;;;;;;;2.00;1.80;;;;;;;;;;5055900;28;20475;-73
2023/05/02 10:48:28;;;;;;;2.42;2.00;;;;;;;;;;5050680;28;20029;-74
2023/05/02 10:50:54;;;;;;;4.53;1.80;;;;;;;;;;5037971;28;20033;-73
2023/05/02 10:53:27;;;;;;;2.95;1.85;;;;;;;;;;5053372;28;20032;-73
2023/05/02 10:56:12;;;;;;;2.85;1.60;;;;;;;;;;5058047;28;20025;-73
2023/05/02 10:58:38;;;;;;;2.58;1.83;;;;;;;;;;5046251;28;20037;-73
2023/05/02 11:01:36;;;;;;;1.80;1.70;;;;;;;;;;5058663;28;20051;-73
2023/05/02 11:04:03;;;;;;;1.90;1.80;;;;;;;;;;5046934;28;20083;-73
2023/05/02 11:06:32;;;;;;;3.03;1.92;;;;;;;;;;5066887;28;20024;-73
2023/05/02 11:09:14;;;;;;;2.20;1.90;;;;;;;;;;5064871;28;20025;-73
2023/05/02 11:11:47;;;;;;;2.28;1.90;;;;;;;;;;5048728;28;20035;-73
2023/05/02 11:14:32;;;;;;;2.20;2.00;;;;;;;;;;5059182;28;20032;-73
2023/05/02 11:16:58;;;;;;;3.35;2.10;;;;;;;;;;5053875;28;20033;-73
2023/05/02 11:19:28;;;;;;;4.05;1.80;;;;;;;;;;5062361;28;20029;-73
2023/05/02 11:22:14;;;;;;;2.67;2.30;;;;;;;;;;5053239;28;20033;-73
2023/05/02 11:24:41;;;;;;;3.03;2.38;;;;;;;;;;5038201;28;20044;-72
2023/05/02 11:27:27;;;;;;;4.20;2.40;;;;;;;;;;5055526;28;20086;-73
2023/05/02 11:29:54;;;;;;;3.38;2.75;;;;;;;;;;5057800;28;20190;-73
2023/05/02 11:32:21;;;;;;;4.32;3.05;;;;;;;;;;5062810;28;20021;-73
2023/05/02 11:34:51;;;;;;;6.13;2.97;;;;;;;;;;5060257;28;20530;-72
2023/05/02 11:37:17;;;;;;;6.82;3.97;;;;;;;;;;5061310;28;20328;-73
2023/05/02 11:39:43;;;;;;;5.03;3.50;;;;;;;;;;5068712;28;20028;-73
2023/05/02 11:42:09;;;;;;;5.65;3.80;;;;;;;;;;5069569;28;20043;-72
2023/05/02 11:44:54;;;;;;;3.90;3.50;;;;;;;;;;5054481;28;20120;-73
2023/05/02 11:47:21;;;;;;;8.40;3.63;;;;;;;;;;5068550;28;20721;-73
2023/05/02 11:49:47;;;;;;;7.70;4.20;;;;;;;;;;5067612;28;20067;-73
2023/05/02 11:52:13;;;;;;;6.45;3.80;;;;;;;;;;5068409;28;20391;-72
2023/05/02 11:54:39;;;;;;;6.80;4.15;;;;;;;;;;5066535;28;20040;-73
2023/05/02 11:57:05;;;;;;;9.50;4.53;;;;;;;;;;5070344;28;20396;-73
2023/05/02 11:59:48;;;;;;;7.40;4.75;;;;;;;;;;5058003;28;20744;-73
2023/05/02 12:02:14;;;;;;;6.15;4.38;;;;;;;;;;5065569;28;20119;-73
2023/05/02 12:04:43;;;;;;;7.68;4.78;;;;;;;;;;5062807;28;20112;-73
2023/05/02 12:07:09;;;;;;;11.75;5.63;;;;;;;;;;5050641;28;20029;-73
2023/05/02 12:09:35;;;;;;;10.57;5.20;;;;;;;;;;5052882;28;20025;-73
2023/05/02 12:12:02;;;;;;;13.55;5.95;;;;;;;;;;5057675;28;20024;-73
2023/05/02 12:14:29;;;;;;;13.02;6.00;;;;;;;;;;5049374;28;20112;-73
2023/05/02 12:16:55;;;;;;;12.00;6.13;;;;;;;;;;5051923;28;20467;-72
2023/05/02 12:19:22;;;;;;;14.68;6.50;;;;;;;;;;5055876;28;20333;-73
2023/05/02 12:21:48;;;;;;;14.20;6.28;;;;;;;;;;5050350;28;20072;-73
2023/05/02 12:24:14;;;;;;;10.60;6.00;;;;;;;;;;5049839;28;20029;-73
2023/05/02 12:26:40;;;;;;;13.57;6.18;;;;;;;;;;5061028;28;20036;-72
2023/05/02 12:29:07;;;;;;;11.57;6.00;;;;;;;;;;5052385;28;20028;-73
2023/05/02 12:31:33;;;;;;;11.50;6.05;;;;;;;;;;5062044;28;20028;-73
2023/05/02 12:34:00;;;;;;;13.40;6.13;;;;;;;;;;5052480;28;20025;-72
2023/05/02 12:36:29;;;;;;;13.75;6.03;;;;;;;;;;5048813;28;20245;-73
2023/05/02 12:38:58;;;;;;;12.23;6.00;;;;;;;;;;4351625;28;10000627;-73
2023/05/02 12:41:31;;;;;;;12.07;6.10;;;;;;;;;;5048196;28;20025;-73
2023/05/02 12:43:59;;;;;;;12.63;6.15;;;;;;;;;;5061746;28;20497;-73
2023/05/02 12:46:27;;;;;;;9.70;5.72;;;;;;;;;;5062196;28;20041;-73
2023/05/02 12:49:10;;;;;;;12.27;5.80;;;;;;;;;;5052998;28;20032;-73
2023/05/02 12:51:37;;;;;;;12.85;5.97;;;;;;;;;;5069467;28;20044;-73
2023/05/02 12:54:04;;;;;;;9.63;6.47;;;;;;;;;;5068212;28;20056;-73
2023/05/02 12:56:33;;;;;;;12.45;6.32;;;;;;;;;;5058434;28;20028;-73
2023/05/02 12:59:04;;;;;;;14.25;6.18;;;;;;;;;;5051407;28;20504;-73
2023/05/02 13:01:32;;;;;;;12.38;5.80;;;;;;;;;;5049514;28;20037;-73
2023/05/02 13:03:58;;;;;;;10.07;5.30;;;;;;;;;;5055313;28;20020;-72
2023/05/02 13:06:25;;;;;;;9.07;5.15;;;;;;;;;;5065954;28;20021;-73
2023/05/02 13:08:51;;;;;;;6.80;4.78;;;;;;;;;;5069377;28;20028;-73
2023/05/02 13:11:17;;;;;;;11.52;5.50;;;;;;;;;;5059415;28;20381;-73
2023/05/02 13:13:43;;;;;;;10.15;5.43;;;;;;;;;;5049852;28;20033;-73
2023/05/02 13:16:09;;;;;;;7.70;5.03;;;;;;;;;;5062928;28;20033;-73
2023/05/02 13:18:35;;;;;;;12.35;6.10;;;;;;;;;;5068891;28;20035;-73
2023/05/02 13:21:01;;;;;;;13.25;6.80;;;;;;;;;;5053637;28;20451;-73
2023/05/02 13:23:27;;;;;;;12.18;5.90;;;;;;;;;;5058811;28;20089;-73
2023/05/02 13:25:53;;;;;;;11.55;5.82;;;;;;;;;;5063439;28;20049;-73
2023/05/02 13:28:19;;;;;;;13.20;6.05;;;;;;;;;;5048936;28;20056;-73
2023/05/02 13:30:45;;;;;;;11.80;6.20;;;;;;;;;;5049316;28;20067;-73
2023/05/02 13:33:11;;;;;;;13.45;7.10;;;;;;;;;;5061998;28;20074;-73
2023/05/02 13:35:37;;;;;;;10.60;6.43;;;;;;;;;;5061156;28;20033;-72
2023/05/02 13:38:03;;;;;;;15.07;7.78;;;;;;;;;;5056920;28;20116;-73
2023/05/02 13:40:29;;;;;;;13.88;6.93;;;;;;;;;;5048965;28;20021;-73
2023/05/02 13:42:55;;;;;;;22.15;7.70;;;;;;;;;;5048150;28;20029;-72
2023/05/02 13:45:21;;;;;;;14.75;7.53;;;;;;;;;;5053552;28;20035;-73
2023/05/02 13:47:47;;;;;;;17.83;7.57;;;;;;;;;;5049485;28;20025;-72
2023/05/02 13:50:13;;;;;;;13.30;7.18;;;;;;;;;;5057075;28;20025;-73
2023/05/02 13:52:39;;;;;;;15.63;7.35;;;;;;;;;;5048238;28;20025;-73
2023/05/02 13:55:06;;;;;;;15.50;7.03;;;;;;;;;;5048457;28;20021;-73
2023/05/02 13:57:32;;;;;;;11.15;6.55;;;;;;;;;;5060812;28;20033;-73
2023/05/02 13:59:58;;;;;;;14.25;7.15;;;;;;;;;;5047280;28;20142;-73
2023/05/02 14:02:24;;;;;;;14.88;7.18;;;;;;;;;;5055245;28;20024;-73
2023/05/02 14:04:50;;;;;;;13.23;6.43;;;;;;;;;;5052244;28;20045;-73
2023/05/02 14:07:16;;;;;;;12.65;6.47;;;;;;;;;;5050675;28;20013;-73
2023/05/02 14:09:43;;;;;;;12.73;6.93;;;;;;;;;;4698739;28;10000635;-74
2023/05/02 14:12:09;;;;;;;12.40;6.53;;;;;;;;;;5059758;28;20071;-75
2023/05/02 14:14:36;;;;;;;14.65;6.90;;;;;;;;;;5058035;28;20052;-73
2023/05/02 14:17:04;;;;;;;16.38;6.72;;;;;;;;;;5054578;28;20397;-74
2023/05/02 14:19:30;;;;;;;12.25;6.78;;;;;;;;;;5052003;28;20082;-73
2023/05/02 14:21:56;;;;;;;11.45;6.18;;;;;;;;;;5055448;28;20032;-74
2023/05/02 14:24:22;;;;;;;14.70;6.30;;;;;;;;;;5057424;28;20037;-73
2023/05/02 14:26:48;;;;;;;16.63;7.65;;;;;;;;;;5050411;28;20068;-73
2023/05/02 14:29:14;;;;;;;15.40;7.07;;;;;;;;;;5051924;28;20121;-73
2023/05/02 14:31:40;;;;;;;11.57;6.03;;;;;;;;;;5051376;28;20159;-75
2023/05/02 14:34:06;;;;;;;12.93;5.45;;;;;;;;;;5047027;28;20029;-74